Time,TemperatureF,DewpointF,PressureIn,WindDirection,WindDirectionDegrees,WindSpeedMPH,WindSpeedGustMPH,Humidity,HourlyPrecipIn,Conditions,Clouds,dailyrainin,SoftwareType,DateUTC
2013-08-28 00:14:00,81.9,64.6,29.89,WSW,247,4.2,-999.0,56,-99.99,,,0.00,Acu-Link.com,2013-08-28 05:14:00,
2013-08-28 00:29:00,81.5,64.3,29.89,WSW,247,5.3,-999.0,56,-99.99,,,0.00,Acu-Link.com,2013-08-28 05:29:00,
2013-08-28 00:44:00,81.1,63.9,29.89,SSW,202,3.7,-999.0,56,-99.99,,,0.00,Acu-Link.com,2013-08-28 05:44:00,
2013-08-28 01:00:00,81.0,64.3,29.88,SW,225,3.7,-999.0,57,-99.99,,,0.00,Acu-Link.com,2013-08-28 06:00:00,
2013-08-28 01:15:00,80.8,64.6,29.89,SSW,202,3.7,-999.0,58,-99.99,,,0.00,Acu-Link.com,2013-08-28 06:15:00,
2013-08-28 01:30:00,80.4,64.7,29.89,SW,225,4.7,-999.0,59,-99.99,,,0.00,Acu-Link.com,2013-08-28 06:30:00,
2013-08-28 01:45:00,80.4,64.7,29.88,SW,225,6.3,-999.0,59,-99.99,,,0.00,Acu-Link.com,2013-08-28 06:45:00,
2013-08-28 02:00:00,79.5,64.9,29.88,SW,225,4.7,-999.0,61,-99.99,,,0.00,Acu-Link.com,2013-08-28 07:00:00,
2013-08-28 02:15:00,78.8,64.7,29.88,SW,225,4.2,-999.0,62,-99.99,,,0.00,Acu-Link.com,2013-08-28 07:15:00,
2013-08-28 02:30:00,78.4,64.7,29.88,SW,225,2.7,-999.0,63,-99.99,,,0.00,Acu-Link.com,2013-08-28 07:30:00,
2013-08-28 02:45:00,78.3,65.5,29.87,West,270,3.2,-999.0,65,-99.99,,,0.00,Acu-Link.com,2013-08-28 07:45:00,
2013-08-28 03:00:00,77.7,65.4,29.87,SW,225,6.8,-999.0,66,-99.99,,,0.00,Acu-Link.com,2013-08-28 08:00:00,
2013-08-28 03:15:00,77.5,65.2,29.87,SW,225,4.2,-999.0,66,-99.99,,,0.00,Acu-Link.com,2013-08-28 08:15:00,
2013-08-28 03:31:00,77.4,65.1,29.88,WSW,247,2.7,-999.0,66,-99.99,,,0.00,Acu-Link.com,2013-08-28 08:31:00,
2013-08-28 03:46:00,77.2,65.8,29.88,West,270,7.3,-999.0,68,-99.99,,,0.00,Acu-Link.com,2013-08-28 08:46:00,
2013-08-28 04:01:00,76.3,66.2,29.87,West,270,5.8,-999.0,71,-99.99,,,0.00,Acu-Link.com,2013-08-28 09:01:00,
2013-08-28 04:16:00,75.9,65.8,29.88,SW,225,1.7,-999.0,71,-99.99,,,0.00,Acu-Link.com,2013-08-28 09:16:00,
2013-08-28 04:31:00,75.7,65.6,29.88,West,270,5.8,-999.0,71,-99.99,,,0.00,Acu-Link.com,2013-08-28 09:31:00,
2013-08-28 04:46:00,75.6,65.5,29.88,West,270,6.3,-999.0,71,-99.99,,,0.00,Acu-Link.com,2013-08-28 09:46:00,
2013-08-28 05:01:00,75.9,65.8,29.88,WSW,247,5.8,-999.0,71,-99.99,,,0.00,Acu-Link.com,2013-08-28 10:01:00,
2013-08-28 05:17:00,75.9,65.8,29.89,West,270,4.7,-999.0,71,-99.99,,,0.00,Acu-Link.com,2013-08-28 10:17:00,
2013-08-28 05:32:00,75.7,65.6,29.89,West,270,5.3,-999.0,71,-99.99,,,0.00,Acu-Link.com,2013-08-28 10:32:00,
2013-08-28 05:47:00,75.0,65.3,29.90,West,270,4.2,-999.0,72,-99.99,,,0.00,Acu-Link.com,2013-08-28 10:47:00,
2013-08-28 06:02:00,74.7,65.5,29.90,SW,225,3.7,-999.0,73,-99.99,,,0.00,Acu-Link.com,2013-08-28 11:02:00,
2013-08-28 06:17:00,74.3,65.5,29.91,WSW,247,4.2,-999.0,74,-99.99,,,0.00,Acu-Link.com,2013-08-28 11:17:00,
2013-08-28 06:33:00,73.9,65.5,29.91,West,270,7.3,-999.0,75,-99.99,,,0.00,Acu-Link.com,2013-08-28 11:33:00,
2013-08-28 06:48:00,73.9,65.5,29.91,WSW,247,4.7,-999.0,75,-99.99,,,0.00,Acu-Link.com,2013-08-28 11:48:00,
2013-08-28 07:03:00,74.5,65.7,29.92,SSW,202,4.7,-999.0,74,-99.99,,,0.00,Acu-Link.com,2013-08-28 12:03:00,
2013-08-28 07:18:00,75.6,66.3,29.93,WSW,247,3.7,-999.0,73,-99.99,,,0.00,Acu-Link.com,2013-08-28 12:18:00,
2013-08-28 07:34:00,76.5,66.4,29.93,SW,225,2.7,-999.0,71,-99.99,,,0.00,Acu-Link.com,2013-08-28 12:34:00,
2013-08-28 07:49:00,77.4,66.8,29.93,WSW,247,3.2,-999.0,70,-99.99,,,0.00,Acu-Link.com,2013-08-28 12:49:00,
2013-08-28 08:04:00,78.3,67.3,29.92,SW,225,5.3,-999.0,69,-99.99,,,0.00,Acu-Link.com,2013-08-28 13:04:00,
2013-08-28 08:20:00,77.5,66.5,29.93,NW,315,3.7,-999.0,69,-99.99,,,0.00,Acu-Link.com,2013-08-28 13:20:00,
2013-08-28 08:35:00,78.1,67.1,29.94,West,270,3.2,-999.0,69,-99.99,,,0.00,Acu-Link.com,2013-08-28 13:35:00,
2013-08-28 08:50:00,79.2,67.7,29.93,West,270,6.8,-999.0,68,-99.99,,,0.00,Acu-Link.com,2013-08-28 13:50:00,
2013-08-28 09:06:00,79.9,67.9,29.93,West,270,4.2,-999.0,67,-99.99,,,0.00,Acu-Link.com,2013-08-28 14:06:00,
2013-08-28 09:21:00,80.6,67.7,29.93,WSW,247,4.7,-999.0,65,-99.99,,,0.00,Acu-Link.com,2013-08-28 14:21:00,
2013-08-28 09:36:00,81.9,67.6,29.93,West,270,7.8,-999.0,62,-99.99,,,0.00,Acu-Link.com,2013-08-28 14:36:00,
2013-08-28 09:51:00,82.4,68.5,29.94,West,270,1.1,-999.0,63,-99.99,,,0.00,Acu-Link.com,2013-08-28 14:51:00,
2013-08-28 10:06:00,83.7,69.3,29.94,WSW,247,6.3,-999.0,62,-99.99,,,0.00,Acu-Link.com,2013-08-28 15:06:00,
2013-08-28 10:21:00,85.1,70.6,29.94,West,270,5.8,-999.0,62,-99.99,,,0.00,Acu-Link.com,2013-08-28 15:21:00,
2013-08-28 10:36:00,85.8,70.3,29.94,West,270,5.8,-999.0,60,-99.99,,,0.00,Acu-Link.com,2013-08-28 15:36:00,
2013-08-28 10:52:00,86.2,71.1,29.95,NNE,22,0.0,-999.0,61,-99.99,,,0.00,Acu-Link.com,2013-08-28 15:52:00,
2013-08-28 11:07:00,86.5,71.4,29.95,SW,225,0.0,-999.0,61,-99.99,,,0.00,Acu-Link.com,2013-08-28 16:07:00,
2013-08-28 11:22:00,88.7,72.5,29.95,NNE,22,0.0,-999.0,59,-99.99,,,0.00,Acu-Link.com,2013-08-28 16:22:00,
2013-08-28 11:38:00,88.9,72.2,29.95,NNE,22,0.0,-999.0,58,-99.99,,,0.00,Acu-Link.com,2013-08-28 16:38:00,
2013-08-28 11:53:00,90.9,74.0,29.95,NNE,22,1.7,-999.0,58,-99.99,,,0.00,Acu-Link.com,2013-08-28 16:53:00,
2013-08-28 12:08:00,90.7,73.9,29.95,NNE,22,2.7,-999.0,58,-99.99,,,0.00,Acu-Link.com,2013-08-28 17:08:00,
2013-08-28 12:23:00,92.1,75.7,29.95,NE,45,0.0,-999.0,59,-99.99,,,0.00,Acu-Link.com,2013-08-28 17:23:00,
2013-08-28 12:38:00,90.5,74.7,29.95,ESE,112,3.7,-999.0,60,-99.99,,,0.00,Acu-Link.com,2013-08-28 17:38:00,
2013-08-28 12:53:00,91.0,74.6,29.95,ENE,67,4.2,-999.0,59,-99.99,,,0.00,Acu-Link.com,2013-08-28 17:53:00,
2013-08-28 13:08:00,90.5,75.2,29.95,NNE,22,4.7,-999.0,61,-99.99,,,0.00,Acu-Link.com,2013-08-28 18:08:00,
2013-08-28 13:24:00,91.4,75.0,29.95,NE,45,3.7,-999.0,59,-99.99,,,0.00,Acu-Link.com,2013-08-28 18:24:00,
2013-08-28 13:39:00,91.6,74.2,29.95,NNW,337,4.2,-999.0,57,-99.99,,,0.00,Acu-Link.com,2013-08-28 18:39:00,
2013-08-28 13:54:00,92.8,75.8,29.95,NE,45,1.7,-999.0,58,-99.99,,,0.00,Acu-Link.com,2013-08-28 18:54:00,
2013-08-28 14:09:00,92.8,74.8,29.95,WSW,247,0.0,-999.0,56,-99.99,,,0.00,Acu-Link.com,2013-08-28 19:09:00,
2013-08-28 14:24:00,92.8,74.2,29.95,NW,315,0.0,-999.0,55,-99.99,,,0.00,Acu-Link.com,2013-08-28 19:24:00,
2013-08-28 14:40:00,93.6,73.8,29.95,NE,45,0.0,-999.0,53,-99.99,,,0.00,Acu-Link.com,2013-08-28 19:40:00,
2013-08-28 14:55:00,93.4,74.8,29.94,NE,45,2.7,-999.0,55,-99.99,,,0.00,Acu-Link.com,2013-08-28 19:55:00,
2013-08-28 15:10:00,92.8,74.8,29.94,NE,45,3.7,-999.0,56,-99.99,,,0.00,Acu-Link.com,2013-08-28 20:10:00,
2013-08-28 15:25:00,91.4,74.5,29.94,East,90,1.7,-999.0,58,-99.99,,,0.00,Acu-Link.com,2013-08-28 20:25:00,
2013-08-28 15:40:00,94.1,74.3,29.94,NNE,22,2.2,-999.0,53,-99.99,,,0.00,Acu-Link.com,2013-08-28 20:40:00,
2013-08-28 15:56:00,93.2,74.6,29.94,NE,45,2.7,-999.0,55,-99.99,,,0.00,Acu-Link.com,2013-08-28 20:56:00,
2013-08-28 16:11:00,91.6,75.7,29.94,NNE,22,4.2,-999.0,60,-99.99,,,0.00,Acu-Link.com,2013-08-28 21:11:00,
2013-08-28 16:26:00,93.6,75.5,29.95,East,90,2.7,-999.0,56,-99.99,,,0.00,Acu-Link.com,2013-08-28 21:26:00,
2013-08-28 16:41:00,93.4,75.3,29.95,NW,315,1.1,-999.0,56,-99.99,,,0.00,Acu-Link.com,2013-08-28 21:41:00,
2013-08-28 16:57:00,93.0,75.5,29.94,NE,45,1.1,-999.0,57,-99.99,,,0.00,Acu-Link.com,2013-08-28 21:57:00,
2013-08-28 17:12:00,93.6,76.0,29.95,ESE,112,2.7,-999.0,57,-99.99,,,0.00,Acu-Link.com,2013-08-28 22:12:00,
2013-08-28 17:27:00,93.6,75.5,29.95,East,90,0.0,-999.0,56,-99.99,,,0.00,Acu-Link.com,2013-08-28 22:27:00,
2013-08-28 17:42:00,93.6,76.0,29.94,ENE,67,3.2,-999.0,57,-99.99,,,0.00,Acu-Link.com,2013-08-28 22:42:00,
2013-08-28 17:57:00,91.2,75.8,29.95,ENE,67,4.2,-999.0,61,-99.99,,,0.00,Acu-Link.com,2013-08-28 22:57:00,
2013-08-28 18:13:00,90.5,76.6,29.95,East,90,5.8,-999.0,64,-99.99,,,0.00,Acu-Link.com,2013-08-28 23:13:00,
2013-08-28 18:28:00,88.9,76.9,29.95,ENE,67,7.3,-999.0,68,-99.99,,,0.00,Acu-Link.com,2013-08-28 23:28:00,
2013-08-28 18:43:00,87.1,76.5,29.96,NE,45,5.8,-999.0,71,-99.99,,,0.00,Acu-Link.com,2013-08-28 23:43:00,
2013-08-28 18:58:00,85.1,75.9,29.96,ENE,67,7.3,-999.0,74,-99.99,,,0.00,Acu-Link.com,2013-08-28 23:58:00,
2013-08-28 19:13:00,84.0,75.6,29.96,NE,45,7.8,-999.0,76,-99.99,,,0.00,Acu-Link.com,2013-08-29 00:13:00,
2013-08-28 19:28:00,83.1,75.1,29.97,East,90,4.7,-999.0,77,-99.99,,,0.00,Acu-Link.com,2013-08-29 00:28:00,
2013-08-28 19:43:00,82.4,74.8,29.96,East,90,5.8,-999.0,78,-99.99,,,0.00,Acu-Link.com,2013-08-29 00:43:00,
2013-08-28 19:58:00,82.2,75.4,29.98,ENE,67,6.3,-999.0,80,-99.99,,,0.00,Acu-Link.com,2013-08-29 00:58:00,
2013-08-28 20:14:00,81.1,74.7,29.98,NE,45,3.7,-999.0,81,-99.99,,,0.00,Acu-Link.com,2013-08-29 01:14:00,
2013-08-28 20:29:00,81.1,74.7,29.98,East,90,4.2,-999.0,81,-99.99,,,0.00,Acu-Link.com,2013-08-29 01:29:00,
2013-08-28 20:44:00,80.8,74.4,29.99,East,90,4.2,-999.0,81,-99.99,,,0.00,Acu-Link.com,2013-08-29 01:44:00,
2013-08-28 21:00:00,80.4,74.0,29.99,ESE,112,4.7,-999.0,81,-99.99,,,0.00,Acu-Link.com,2013-08-29 02:00:00,
2013-08-28 21:15:00,80.1,73.7,29.99,ENE,67,3.7,-999.0,81,-99.99,,,0.00,Acu-Link.com,2013-08-29 02:15:00,
2013-08-28 21:30:00,79.9,73.9,30.00,East,90,2.2,-999.0,82,-99.99,,,0.00,Acu-Link.com,2013-08-29 02:30:00,
2013-08-28 21:46:00,79.9,73.9,30.00,East,90,3.7,-999.0,82,-99.99,,,0.00,Acu-Link.com,2013-08-29 02:46:00,
2013-08-28 22:01:00,79.5,73.5,30.01,East,90,5.3,-999.0,82,-99.99,,,0.00,Acu-Link.com,2013-08-29 03:01:00,
2013-08-28 22:16:00,79.2,73.2,30.00,ENE,67,4.2,-999.0,82,-99.99,,,0.00,Acu-Link.com,2013-08-29 03:16:00,
2013-08-28 22:31:00,79.2,73.2,30.00,East,90,4.7,-999.0,82,-99.99,,,0.00,Acu-Link.com,2013-08-29 03:31:00,
2013-08-28 22:46:00,78.8,72.8,30.00,ESE,112,0.0,-999.0,82,-99.99,,,0.00,Acu-Link.com,2013-08-29 03:46:00,
2013-08-28 23:02:00,78.4,72.8,30.00,SE,135,0.0,-999.0,83,-99.99,,,0.00,Acu-Link.com,2013-08-29 04:02:00,
2013-08-28 23:17:00,77.9,72.7,30.00,NE,45,2.2,-999.0,84,-99.99,,,0.00,Acu-Link.com,2013-08-29 04:17:00,
2013-08-28 23:32:00,77.7,72.5,30.00,ESE,112,0.0,-999.0,84,-99.99,,,0.00,Acu-Link.com,2013-08-29 04:32:00,
2013-08-28 23:48:00,77.5,72.3,29.99,East,90,0.0,-999.0,84,-99.99,,,0.00,Acu-Link.com,2013-08-29 04:48:00,